Redwood City, CA (94065)

00:51 PDT le 30 août 2015 (GMT -0700)
Belmont - Island Park | | Change Station
CLOSE
Current Station
Stations météorologiques personnelles
Location: Belmont, CA
Altitude: 5 ft
Stations météo à proximité

Alt. 5 ft 37.53 °N, 122.27 °W | Updated 22 seconds ago

Overcast
Couvert
67.3 ° F
Paraît 67.3 ° F
N
3.6
Vent Variable Vent de ONO
Gusts 4.9 mph

Aujourd'hui
Haut(e) -- | Bas -- ° F
--% Risque de précip.
Hier
Haut(e) -- | Bas -- ° F
Precip. -- pouce
6:37 AM 7:41 PM
Pleine lune, 100% visible
Pression 30.02 pouce
Visibilité 10.0 Miles terrestres
Nuages Couvert 1900 ft
Point de rosée 60 ° F
Humidité 78%
Précipitations 0.00 pouce
Profondeur de la couche neigeuse Non disponible.
UV 0 sur 12
Pollen 6.20 sur 12
Qualité de l'air Non disponible.
Flu Activity Non disponible.
METAR KSQL 300735Z AUTO 27005KT 10SM OVC019 19/15 A3002 RMK AO2
Pression 30.02 pouce
Visibilité 10.0 Miles terrestres
Nuages Couvert 1900 ft
Point de rosée 60 ° F
Humidité 78%
Précipitations 0.00 pouce
Profondeur de la couche neigeuse Non disponible.
UV 0 sur 12
Pollen 6.20 sur 12
Qualité de l'air Non disponible.
Flu Activity Non disponible.
METAR KSQL 300735Z AUTO 27005KT 10SM OVC019 19/15 A3002 RMK AO2

10-Day Weather Forecast

×

Almanac

Astronomie

Aug. 30, 2015 Lever Coucher
Temps réel
Crépuscule civil
Crépuscule nautique
Crépuscule astronomique
Lune
Durée de lumière visible
Longueur du jour
Tomorrow will be .
, % of the Moon is Illuminated

Extrêmes aujourd'hui

State Highs State Lows

Community

WunderPhotos

Upload Photos

1,850,904 Photos téléchargées !

WunderBlogs® & News

Nearby

Qualité de l'air

  Qualité de l'air Indice de la qualité de l'air Polluant
Not available.

Épaisseur de neige

Station Depth Altitude

Activité sismique

Ville Distance Mag. Time & Date
Minimum magnitude displayed is 2.5.

Températures des eaux côtières

Lieu Température

Stations

Stations météo à proximité

Emplacement de la station Température Refroidissement éolien Point de rosée Humidité Vent Precip. Alt. Mise à jour Type